TimeCST,TemperatureF,Dew PointF,Humidity,Sea Level PressureIn,VisibilityMPH,Wind Direction,Wind SpeedMPH,Gust SpeedMPH,PrecipitationIn,Events,Conditions,WindDirDegrees,DateUTC
12:17 AM,42.8,37.4,81,29.62,10.0,South,6.9,-,N/A,,Mostly Cloudy,190,2013-11-09 06:17:00
12:56 AM,44.1,37.9,79,29.63,10.0,SSW,11.5,-,N/A,,Overcast,210,2013-11-09 06:56:00
1:18 AM,44.6,39.2,81,29.61,10.0,SW,10.4,-,N/A,,Overcast,230,2013-11-09 07:18:00
1:56 AM,45.0,39.9,82,29.64,10.0,SW,11.5,-,N/A,,Overcast,230,2013-11-09 07:56:00
2:56 AM,45.0,41.0,86,29.65,10.0,WSW,11.5,20.7,N/A,,Overcast,250,2013-11-09 08:56:00
3:56 AM,45.0,39.9,82,29.66,10.0,West,12.7,21.9,N/A,,Overcast,270,2013-11-09 09:56:00
4:56 AM,43.0,37.9,82,29.69,10.0,West,13.8,25.3,N/A,,Overcast,260,2013-11-09 10:56:00
5:56 AM,43.0,37.0,80,29.71,10.0,West,11.5,-,N/A,,Overcast,260,2013-11-09 11:56:00
6:29 AM,42.8,37.4,81,29.70,10.0,WSW,10.4,-,N/A,,Overcast,250,2013-11-09 12:29:00
6:56 AM,43.0,37.0,80,29.73,10.0,West,13.8,20.7,N/A,,Overcast,260,2013-11-09 12:56:00
7:56 AM,42.1,36.0,79,29.77,10.0,West,13.8,-,N/A,,Overcast,260,2013-11-09 13:56:00
8:56 AM,43.0,36.0,76,29.79,10.0,West,13.8,19.6,N/A,,Overcast,270,2013-11-09 14:56:00
9:56 AM,43.0,36.0,76,29.80,10.0,West,12.7,25.3,N/A,,Overcast,280,2013-11-09 15:56:00
10:56 AM,44.1,35.1,71,29.83,10.0,West,17.3,27.6,N/A,,Overcast,280,2013-11-09 16:56:00
11:56 AM,43.0,35.1,74,29.86,10.0,West,15.0,25.3,N/A,,Overcast,280,2013-11-09 17:56:00
12:56 PM,43.0,33.1,68,29.87,10.0,West,20.7,29.9,N/A,,Overcast,280,2013-11-09 18:56:00
1:47 PM,44.6,32.0,61,29.87,10.0,WNW,16.1,27.6,N/A,,Overcast,290,2013-11-09 19:47:00
1:56 PM,44.1,32.0,63,29.89,10.0,WNW,17.3,26.5,N/A,,Overcast,300,2013-11-09 19:56:00
2:47 PM,42.8,33.8,70,29.89,10.0,West,21.9,32.2,N/A,,Overcast,280,2013-11-09 20:47:00
2:56 PM,43.0,30.9,62,29.92,10.0,West,17.3,33.4,N/A,,Overcast,270,2013-11-09 20:56:00
3:56 PM,41.0,28.0,60,29.96,10.0,West,16.1,28.8,N/A,,Overcast,260,2013-11-09 21:56:00
4:56 PM,39.9,25.0,55,29.99,10.0,WNW,18.4,29.9,N/A,,Overcast,300,2013-11-09 22:56:00
5:56 PM,39.0,25.0,57,30.02,10.0,WNW,13.8,25.3,N/A,,Overcast,290,2013-11-09 23:56:00
6:56 PM,39.0,27.0,62,30.04,10.0,West,11.5,24.2,N/A,,Overcast,280,2013-11-10 00:56:00
7:56 PM,37.9,27.0,65,30.05,10.0,WNW,11.5,21.9,N/A,,Overcast,290,2013-11-10 01:56:00
8:56 PM,37.9,27.0,65,30.07,10.0,West,16.1,21.9,N/A,,Overcast,280,2013-11-10 02:56:00
9:56 PM,37.9,27.0,65,30.09,10.0,WNW,17.3,23.0,N/A,,Overcast,300,2013-11-10 03:56:00
10:53 PM,37.4,26.6,65,30.09,10.0,West,15.0,25.3,N/A,,Overcast,280,2013-11-10 04:53:00
10:56 PM,37.9,28.0,68,30.12,10.0,West,15.0,25.3,N/A,,Overcast,280,2013-11-10 04:56:00
11:56 PM,37.9,28.0,68,30.14,10.0,WNW,15.0,25.3,N/A,,Overcast,300,2013-11-10 05:56:00